Trail du Sud Cournonterral - 27/07/2017

13 Km

206 participants classés


Retour au Sommaire - Signaler une erreur - Faire défiler





1 2 3 4 5 /fin /tout

page suivante ->

Pl Do. Nom - Surname Prénom - Name S-Cat /cat Club - Team TEMPS - Time Km/h /sx
1 185 PIMENTA SIMON MSE 1 Endurance Shop 00:52:53 14,7 1
2 46 MERLAUD ROMAIN MSE 2 CA ORSAY / SKECHERS PERFORMANCE 00:53:50 14,5 2
3 168 BOURGUENOLLE PIERRE-ARNAUD MSE 3 Kalenji Team 00:54:18 14,4 3
4 192 DEFEVER ROBIN MSE 4 NL 00:56:05 13,9 4
5 45 IMPARATO DAMIEN MSE 5 Stamina running club 00:57:12 13,6 5
6 52 LEFEVRE HERVE MV2 1 COLISERViCE 00:59:08 13,2 6
7 95 MAUGER VINCENT MV1 1 COLISERViCE 00:59:46 13,0 7
8 146 MOLINIER GUILLAUME MSE 6 Team OCR Bulkpowders 00:59:50 13,0 8
9 62 DORÉ OLIVIER-SAMUEL MSE 7 PBM 00:59:51 13,0 9
10 67 EL BERRAK KARIM MV1 2 PEROLS FOOTING 01:00:02 13,0 10
11 143 MAILLY PATRICE MV3 1 Generation SED 01:00:17 12,9 11
12 114 KERDELLANT ELVEN MSE 8   01:00:28 12,9 12
13 196 MARY GLEZ MSE 9 ENDURANCE SHOP 01:00:41 12,9 13
14 131 LONN ANTO MSE 10 NIGHT RUN MONTPELLIER 01:00:56 12,8 14
15 266 ABADI DJILALI MV1 3 MAGUELONE JOGGING 01:02:04 12,6 15
16 12 DENAMBRIDE NICOLAS MV1 4 STAUBLI SPORT 01:02:07 12,6 16
17 187 RENAUDIN HUGO MSE 11 NL 01:02:20 12,5 17
18 280 CREMIEUX JOSSELIN MCA 1 ISSY TRIATHLON 01:02:28 12,5 18
19 173 CHOUVY ERIC MV2 2 FREE RUNNER LE CLUB 01:02:32 12,5 19
20 134 ROMERO FRÉDÉRIC MV1 5 AQUALOVE sauvetage 01:02:57 12,4 20
21 182 MARTIN EMMANUEL MSE 12 JOGA FC 01:02:59 12,4 21
22 193 CHARISSOU JULIEN MSE 13 START RUNNING MONTPELLIER 01:03:20 12,3 22
23 34 LE JOLY FRANCK MV2 3   01:03:36 12,3 23
24 83 LAVENTURE SYLVIO MSE 14   01:03:58 12,2 24
25 123 MIRABAUD BENOIT MV1 6 JOGGING LAVERUNE 01:04:11 12,1 25
26 3 BRUNET PHILIPPE MV2 4 Les Cavaleurs - BREST 01:04:23 12,1 26
27 167 JOUVET SYLVAIN MSE 15 AQUALOVE sauvetage 01:04:28 12,1 27
28 136 MERCIER BORIS MSE 16 Ecg 01:04:44 12,0 28
29 53 GRANELL THIBAULT MSE 17   01:04:50 12,0 29
30 198 BOUNSSESSA RACHID MSE 18 LES LOUPS OCCITANS 01:05:07 12,0 30
31 110 LLOPIS VINCENT MV1 7   01:05:11 12,0 31
32 133 FROGE DIDIER MV2 5 V2MAX 01:05:30 11,9 32
33 170 COQUARD CHRISTOPHE MV1 8 Kite Windsurf Maguelone 01:05:39 11,9 33
34 118 ORGAER EMMANUEL MV2 6   01:06:00 11,8 34
35 25 BORG JULIEN MSE 19 MAT 01:06:20 11,8 35
36 164 MARCHAL THOMAS MSE 20   01:06:35 11,7 36
37 310 FOREST SEBASTIEN MV1 9 ECG PIGNAN 01:06:47 11,7 37
38 284 MALZAC FABIEN MSE 21   01:06:49 11,7 38
39 252 BONZOMS CLEMENT MSE 22 ECG PIGNAN 01:06:58 11,6 39
40 106 CONTREPOIS ROBIN MV1 10 XTTR63 01:07:02 11,6 40
41 184 AKEVA AGNES FSE 1   01:07:05 11,6 1
42 129 SENECHAL GILLES MSE 23   01:07:06 11,6 41
43 130 PROKOP THIBAULT MSE 24   01:07:07 11,6 42
44 125 MARTIN LUDOVIC MV1 11 sourire d'elfes34 01:07:12 11,6 43
45 29 MANCHE DAVID MV1 12 Templeuve 01:07:20 11,6 44
46 116 DOUX GREGORY MSE 25   01:07:38 11,5 45
47 9 CANDELIER KÉVIN MSE 26   01:07:43 11,5 46
48 99 PIGELET NICOLAS MSE 27 PARIS SPORT CLUB 01:07:43 11,5 47
49 100 ABBAS JONATHAN MSE 28   01:07:49 11,5 48
50 179 MARY YVAN MV2 7 bonellien 01:07:50 11,5 49

Aucun commentaires pour le moment, donnez votre avis, vos impressions avant, pendant! et après la course

Déjà membre? Identifiez-vous pour commenter l'épreuve ou créer un compte